createdAt,value
2018-06-09T00:04:58.480Z,2.57
2018-06-09T00:10:00.687Z,3.20
2018-06-09T00:15:02.940Z,3.20
2018-06-09T00:20:05.169Z,2.73
2018-06-09T00:25:07.390Z,2.93
2018-06-09T00:30:09.569Z,3.00
2018-06-09T00:35:11.759Z,3.03
2018-06-09T00:40:14.034Z,2.70
2018-06-09T00:45:16.226Z,2.30
2018-06-09T00:50:18.437Z,2.40
2018-06-09T00:55:20.578Z,2.77
2018-06-09T01:00:22.782Z,2.70
2018-06-09T01:05:24.996Z,2.70
2018-06-09T01:10:27.194Z,2.40
2018-06-09T01:15:29.365Z,2.37
2018-06-09T01:20:31.568Z,2.30
2018-06-09T01:25:33.770Z,2.80
2018-06-09T01:30:35.932Z,2.80
2018-06-09T01:35:38.088Z,2.70
2018-06-09T01:40:40.301Z,2.00
2018-06-09T01:45:42.466Z,2.43
2018-06-09T01:50:44.652Z,2.20
2018-06-09T01:55:46.604Z,2.63
2018-06-09T02:00:48.807Z,2.20
2018-06-09T02:05:50.972Z,2.90
2018-06-09T02:10:53.163Z,2.10
2018-06-09T02:15:55.326Z,3.03
2018-06-09T02:20:57.537Z,2.67
2018-06-09T02:25:59.714Z,2.40
2018-06-09T02:31:01.905Z,2.20
2018-06-09T02:36:04.732Z,2.50
2018-06-09T02:41:06.940Z,2.97
2018-06-09T02:46:09.164Z,2.90
2018-06-09T02:51:11.351Z,2.40
2018-06-09T02:56:13.545Z,2.83
2018-06-09T03:01:15.722Z,3.10
2018-06-09T03:06:17.908Z,3.00
2018-06-09T03:11:20.056Z,3.03
2018-06-09T03:16:22.236Z,2.43
2018-06-09T03:21:24.406Z,2.37
2018-06-09T03:26:26.562Z,2.47
2018-06-09T03:31:28.695Z,2.50
2018-06-09T03:36:30.843Z,2.80
2018-06-09T03:41:33.065Z,2.57
2018-06-09T03:46:35.200Z,2.47
2018-06-09T03:51:37.386Z,2.47
2018-06-09T03:56:39.614Z,2.80
2018-06-09T04:01:41.817Z,2.97
2018-06-09T04:06:44.019Z,3.13
2018-06-09T04:11:46.209Z,3.13
2018-06-09T04:16:49.515Z,3.37
2018-06-09T04:21:51.682Z,2.87
2018-06-09T04:26:53.869Z,3.30
2018-06-09T04:31:56.063Z,2.90
2018-06-09T04:36:58.214Z,2.83
2018-06-09T04:42:00.401Z,2.63
2018-06-09T04:47:02.601Z,2.10
2018-06-09T04:52:04.823Z,2.63
2018-06-09T04:57:06.989Z,2.37
2018-06-09T05:02:09.167Z,2.37
2018-06-09T05:07:11.353Z,2.60
2018-06-09T05:12:13.545Z,2.00
2018-06-09T05:17:15.713Z,2.40
2018-06-09T05:22:17.876Z,2.00
2018-06-09T05:27:20.051Z,1.60
2018-06-09T05:32:22.231Z,2.00
2018-06-09T05:37:24.409Z,1.90
2018-06-09T05:42:26.620Z,1.60
2018-06-09T05:47:28.790Z,1.47
2018-06-09T05:52:30.970Z,1.17
2018-06-09T05:57:33.132Z,1.60
2018-06-09T06:02:35.346Z,2.40
2018-06-09T06:07:37.602Z,1.93
2018-06-09T06:12:39.823Z,1.80
2018-06-09T06:17:42.065Z,2.30
2018-06-09T06:22:44.260Z,2.60
2018-06-09T06:27:46.462Z,1.77
2018-06-09T06:32:48.641Z,2.43
2018-06-09T06:37:50.861Z,2.20
2018-06-09T06:42:53.070Z,1.70
2018-06-09T06:47:55.258Z,1.93
2018-06-09T06:52:57.424Z,2.50
2018-06-09T06:57:59.609Z,2.10
2018-06-09T07:03:01.773Z,1.83
2018-06-09T07:08:04.030Z,1.70
2018-06-09T07:13:06.197Z,1.90
2018-06-09T07:18:08.392Z,1.70
2018-06-09T07:23:10.572Z,1.67
2018-06-09T07:28:12.740Z,1.80
2018-06-09T07:33:14.967Z,1.93
2018-06-09T07:38:17.153Z,2.03
2018-06-09T07:43:19.373Z,1.90
2018-06-09T07:48:21.595Z,2.40
2018-06-09T07:53:23.790Z,2.77
2018-06-09T07:58:26.020Z,2.50
2018-06-09T08:03:28.237Z,2.20
2018-06-09T08:08:30.434Z,2.20
2018-06-09T08:13:32.618Z,2.30
2018-06-09T08:18:34.819Z,2.63
2018-06-09T08:23:36.979Z,2.67
2018-06-09T08:28:39.159Z,3.07
2018-06-09T08:33:41.347Z,2.53
2018-06-09T08:38:43.542Z,3.87
2018-06-09T08:43:45.844Z,2.20
2018-06-09T08:48:48.094Z,1.70
2018-06-09T08:53:50.328Z,2.27
2018-06-09T08:58:52.567Z,2.60
2018-06-09T09:03:54.753Z,2.37
2018-06-09T09:08:56.924Z,2.00
2018-06-09T09:13:59.162Z,2.50
2018-06-09T09:19:01.336Z,2.17
2018-06-09T09:24:03.556Z,1.97
2018-06-09T09:29:05.743Z,2.13
2018-06-09T09:34:07.911Z,2.43
2018-06-09T09:39:10.086Z,2.60
2018-06-09T09:44:12.276Z,2.27
2018-06-09T09:49:14.459Z,1.90
2018-06-09T09:54:16.625Z,1.53
2018-06-09T09:59:19.015Z,1.70
2018-06-09T10:04:21.206Z,1.97
2018-06-09T10:09:23.457Z,2.10
2018-06-09T10:14:25.639Z,2.30
2018-06-09T10:19:27.841Z,1.90
2018-06-09T10:24:30.039Z,2.00
2018-06-09T10:29:32.248Z,1.57
2018-06-09T10:34:34.453Z,2.30
2018-06-09T10:39:36.710Z,1.47
2018-06-09T10:44:38.952Z,2.20
2018-06-09T10:49:41.161Z,2.00
2018-06-09T10:54:43.351Z,2.10
2018-06-09T10:59:45.532Z,1.97
2018-06-09T11:04:47.733Z,2.20
2018-06-09T11:09:49.960Z,2.10
2018-06-09T11:14:52.218Z,2.07
2018-06-09T11:19:54.437Z,2.50
2018-06-09T11:24:56.642Z,2.30
2018-06-09T11:29:58.900Z,2.00
2018-06-09T11:35:01.044Z,1.80
2018-06-09T11:40:03.298Z,2.00
2018-06-09T11:45:05.565Z,2.30
2018-06-09T11:50:07.771Z,2.40
2018-06-09T11:55:10.026Z,2.20
2018-06-09T12:00:12.247Z,2.00
2018-06-09T12:05:14.418Z,2.70
2018-06-09T12:10:16.635Z,2.53
2018-06-09T12:15:18.908Z,2.97
2018-06-09T12:20:21.106Z,2.30
2018-06-09T12:25:23.360Z,3.13
2018-06-09T12:30:25.575Z,2.77
2018-06-09T12:35:27.774Z,1.93
2018-06-09T12:40:29.982Z,2.73
2018-06-09T12:45:32.213Z,2.23
2018-06-09T12:50:34.462Z,2.20
2018-06-09T12:55:36.690Z,2.53
2018-06-09T13:00:38.880Z,2.57
2018-06-09T13:05:41.096Z,2.70
2018-06-09T13:10:43.333Z,2.20
2018-06-09T13:15:45.554Z,2.20
2018-06-09T13:20:47.789Z,2.87
2018-06-09T13:25:49.998Z,2.30
2018-06-09T13:30:52.200Z,1.90
2018-06-09T13:35:54.476Z,2.10
2018-06-09T13:40:56.570Z,2.10
2018-06-09T13:45:58.934Z,1.90
2018-06-09T13:51:01.145Z,1.73
2018-06-09T13:56:03.404Z,2.33
2018-06-09T14:01:05.690Z,2.13
2018-06-09T14:06:07.916Z,1.97
2018-06-09T14:11:10.102Z,2.20
2018-06-09T14:16:12.368Z,1.60
2018-06-09T14:21:14.615Z,2.00
2018-06-09T14:26:16.821Z,2.00
2018-06-09T14:31:19.058Z,2.00
2018-06-09T14:36:21.303Z,1.93
2018-06-09T14:41:23.477Z,2.17
2018-06-09T14:46:25.757Z,2.33
2018-06-09T14:51:27.923Z,2.60
2018-06-09T14:56:30.114Z,2.57
2018-06-09T15:01:32.296Z,2.13
2018-06-09T15:06:34.571Z,2.23
2018-06-09T15:11:36.784Z,2.33
2018-06-09T15:16:39.051Z,2.77
2018-06-09T15:21:41.204Z,2.47
2018-06-09T15:26:43.368Z,2.70
2018-06-09T15:31:45.596Z,2.43
2018-06-09T15:36:47.817Z,2.27
2018-06-09T15:41:50.013Z,1.90
2018-06-09T15:46:52.258Z,2.40
2018-06-09T15:51:54.472Z,2.50
2018-06-09T15:56:56.692Z,2.50
2018-06-09T16:01:58.887Z,2.10
2018-06-09T16:07:01.167Z,2.67
2018-06-09T16:12:03.428Z,1.90
2018-06-09T16:17:05.595Z,2.50
2018-06-09T16:22:07.819Z,2.00
2018-06-09T16:27:10.037Z,2.10
2018-06-09T16:32:12.292Z,2.20
2018-06-09T16:37:14.562Z,2.33
2018-06-09T16:42:16.756Z,2.90
2018-06-09T16:47:19.082Z,2.33
2018-06-09T16:52:21.311Z,2.43
2018-06-09T16:57:23.527Z,2.43
2018-06-09T17:02:25.711Z,3.10
2018-06-09T17:07:27.967Z,2.00
2018-06-09T17:12:30.174Z,2.40
2018-06-09T17:17:32.464Z,2.73
2018-06-09T17:22:34.762Z,2.70
2018-06-09T17:27:36.924Z,2.37
2018-06-09T17:32:39.136Z,2.10
2018-06-09T17:37:41.332Z,2.50
2018-06-09T17:42:43.571Z,2.40
2018-06-09T17:47:45.807Z,2.73
2018-06-09T17:52:48.014Z,2.70
2018-06-09T17:57:50.209Z,2.57
2018-06-09T18:02:52.431Z,2.83
2018-06-09T18:07:54.653Z,2.67
2018-06-09T18:12:56.830Z,2.63
2018-06-09T18:17:59.034Z,3.20
2018-06-09T18:23:01.336Z,2.70
2018-06-09T18:28:03.663Z,2.80
2018-06-09T18:33:05.833Z,2.80
2018-06-09T18:38:07.988Z,2.90
2018-06-09T18:43:10.192Z,2.70
2018-06-09T18:48:12.423Z,3.07
2018-06-09T18:53:14.630Z,2.63
2018-06-09T18:58:16.887Z,2.50
2018-06-09T19:03:19.100Z,2.70
2018-06-09T19:08:21.344Z,2.83
2018-06-09T19:13:23.569Z,2.57
2018-06-09T19:18:25.812Z,3.23
2018-06-09T19:23:28.006Z,3.27
2018-06-09T19:28:30.285Z,2.80
2018-06-09T19:33:32.617Z,3.17
2018-06-09T19:38:34.847Z,2.87
2018-06-09T19:43:37.109Z,3.00
2018-06-09T19:48:39.413Z,3.03
2018-06-09T19:53:42.131Z,3.40
2018-06-09T19:58:44.622Z,3.27
2018-06-09T20:03:46.928Z,3.13
2018-06-09T20:08:49.204Z,3.83
2018-06-09T20:13:51.410Z,3.10
2018-06-09T20:18:53.604Z,3.67
2018-06-09T20:23:55.821Z,4.57
2018-06-09T20:28:58.077Z,3.33
2018-06-09T20:34:00.401Z,2.90
2018-06-09T20:39:03.927Z,4.00
2018-06-09T20:44:06.116Z,4.00
2018-06-09T20:49:08.823Z,3.53
2018-06-09T20:54:11.074Z,3.10
2018-06-09T20:59:13.297Z,4.40
2018-06-09T21:04:15.565Z,3.60
2018-06-09T21:09:17.774Z,3.60
2018-06-09T21:14:20.041Z,3.40
2018-06-09T21:19:22.207Z,3.17
2018-06-09T21:24:26.363Z,4.33
2018-06-09T21:29:33.712Z,4.23
2018-06-09T21:34:54.202Z,4.00
2018-06-09T21:40:04.597Z,4.47
2018-06-09T21:45:08.846Z,4.10
2018-06-09T21:50:13.289Z,4.13
2018-06-09T21:55:16.336Z,2.83
2018-06-09T22:00:19.379Z,4.03
2018-06-09T22:05:22.437Z,4.10
2018-06-09T22:10:27.261Z,3.80
2018-06-09T22:15:30.045Z,4.40
2018-06-09T22:20:32.948Z,3.87
2018-06-09T22:25:42.765Z,4.37
2018-06-09T22:30:46.344Z,3.83
2018-06-09T22:35:49.311Z,4.80
2018-06-09T22:40:52.047Z,4.47
2018-06-09T22:45:55.445Z,3.80
2018-06-09T22:50:58.551Z,3.40
2018-06-09T22:56:02.192Z,3.87
2018-06-09T23:01:04.958Z,4.33
2018-06-09T23:06:07.883Z,3.47
2018-06-09T23:11:11.363Z,3.63
2018-06-09T23:16:14.489Z,3.60
2018-06-09T23:21:17.388Z,4.40
2018-06-09T23:26:20.744Z,4.17
2018-06-09T23:31:24.205Z,3.67
2018-06-09T23:36:26.453Z,3.63
2018-06-09T23:41:28.623Z,4.03
2018-06-09T23:46:30.812Z,4.53
2018-06-09T23:51:33.011Z,4.20
2018-06-09T23:56:35.151Z,4.50
